EYKA/KUN METAR and TAF weather

Enter ICAO airport designator
Station Type Date Time Source
EYKA METAR 2018/12/10 19:50 UTC NOAA

EYKA 101950Z 26007KT 9999 OVC004 02/01 Q1002 R08/2///95


Station Type Date Time Source
EYKA Decoded METAR 2018/12/10 19:50 UTC NOAA

Kaunas, Lithuania (EYKA) 54-54N 023-55-12E
Dec 10, 2018 - 02:50 PM EST / 2018.12.10 1950 UTC
Wind: from the W (260 degrees) at 8 MPH (7 KT):0
Visibility: greater than 7 mile(s):0
Sky conditions: overcast
Temperature: 35 F (2 C)
Windchill: 28 F (-2 C):1
Dew Point: 33 F (1 C)
Relative Humidity: 93%
Pressure (altimeter): 29.59 in. Hg (1002 hPa)
ob: EYKA 101950Z 26007KT 9999 OVC004 02/01 Q1002 R08/2///95
cycle: 20

Station Type Date Time Source
EYKA TAF 2018/12/10 18:06 UTC NOAA

TAF TAF EYKA 101701Z 1018/1118 VRB04KT 1500 BR BKN005
TEMPO 1018/1022 0500 FG VV002
BECMG 1022/1023 0500 FZFG VV002
TEMPO 1023/1109 1500 BR
BECMG 1109/1110 3000 BR BKN005
TEMPO 1114/1118 0600 FZFG VV002


Example: see airport list